createdAt,value
2022-11-20T00:01:28.527Z,2.53
2022-11-20T00:03:57.210Z,2.55
2022-11-20T00:06:24.579Z,2.47
2022-11-20T00:08:51.917Z,2.50
2022-11-20T00:11:23.721Z,2.67
2022-11-20T00:13:52.935Z,2.30
2022-11-20T00:16:22.440Z,2.58
2022-11-20T00:18:49.713Z,2.28
2022-11-20T00:21:28.645Z,2.42
2022-11-20T00:23:57.249Z,2.40
2022-11-20T00:26:26.905Z,2.25
2022-11-20T00:28:56.853Z,2.55
2022-11-20T00:31:24.280Z,2.50
2022-11-20T00:33:51.281Z,2.35
2022-11-20T00:36:20.133Z,2.20
2022-11-20T00:38:47.346Z,2.22
2022-11-20T00:41:16.201Z,2.10
2022-11-20T00:43:43.557Z,2.00
2022-11-20T00:46:11.769Z,1.83
2022-11-20T00:48:38.595Z,1.70
2022-11-20T00:51:06.119Z,1.55
2022-11-20T00:53:33.078Z,1.63
2022-11-20T00:56:05.248Z,1.60
2022-11-20T00:58:34.913Z,1.65
2022-11-20T01:01:07.261Z,1.63
2022-11-20T01:03:35.793Z,1.60
2022-11-20T01:06:10.157Z,1.60
2022-11-20T01:08:37.384Z,1.40
2022-11-20T01:11:09.556Z,1.30
2022-11-20T01:13:39.612Z,1.70
2022-11-20T01:16:18.582Z,1.80
2022-11-20T01:18:47.799Z,1.75
2022-11-20T01:21:19.460Z,1.80
2022-11-20T01:23:52.395Z,1.85
2022-11-20T01:26:22.473Z,2.00
2022-11-20T01:28:49.637Z,2.30
2022-11-20T01:31:18.189Z,1.98
2022-11-20T01:33:48.160Z,1.80
2022-11-20T01:36:18.148Z,1.90
2022-11-20T01:38:46.109Z,1.90
2022-11-20T01:41:37.067Z,2.33
2022-11-20T01:44:05.347Z,2.80
2022-11-20T01:46:37.883Z,2.80
2022-11-20T01:49:29.652Z,2.90
2022-11-20T01:52:24.236Z,2.42
2022-11-20T01:57:25.819Z,2.38
2022-11-20T02:00:02.253Z,2.30
2022-11-20T02:02:29.904Z,2.20
2022-11-20T02:05:01.861Z,2.35
2022-11-20T02:07:31.292Z,2.17
2022-11-20T02:09:59.022Z,2.33
2022-11-20T02:12:44.711Z,1.73
2022-11-20T02:15:11.574Z,1.92
2022-11-20T02:17:39.268Z,2.35
2022-11-20T02:20:07.052Z,2.35
2022-11-20T02:22:58.664Z,2.15
2022-11-20T02:25:27.278Z,1.80
2022-11-20T02:27:54.237Z,1.63
2022-11-20T02:30:21.062Z,1.80
2022-11-20T02:32:47.882Z,1.58
2022-11-20T02:35:20.701Z,1.58
2022-11-20T02:37:51.183Z,1.77
2022-11-20T02:40:18.324Z,2.05
2022-11-20T02:42:45.599Z,2.47
2022-11-20T02:45:13.044Z,3.08
2022-11-20T02:47:40.031Z,2.90
2022-11-20T02:50:07.624Z,2.83
2022-11-20T02:52:35.798Z,3.17
2022-11-20T02:55:02.658Z,3.58
2022-11-20T02:57:29.488Z,3.20
2022-11-20T02:59:56.896Z,2.80
2022-11-20T03:02:24.371Z,2.85
2022-11-20T03:04:52.744Z,2.65
2022-11-20T03:07:19.931Z,2.60
2022-11-20T03:09:46.742Z,3.00
2022-11-20T03:12:13.746Z,3.08
2022-11-20T03:14:41.361Z,2.72
2022-11-20T03:17:08.170Z,3.20
2022-11-20T03:19:35.360Z,3.50
2022-11-20T03:22:02.584Z,4.30
2022-11-20T03:24:29.880Z,4.00
2022-11-20T03:26:56.676Z,3.38
2022-11-20T03:29:23.680Z,3.88
2022-11-20T03:31:51.194Z,4.30
2022-11-20T03:34:19.385Z,3.90
2022-11-20T03:36:46.361Z,3.60
2022-11-20T03:39:13.158Z,3.38
2022-11-20T03:41:41.894Z,4.38
2022-11-20T03:44:11.966Z,3.33
2022-11-20T03:46:39.168Z,3.30
2022-11-20T03:49:06.512Z,3.17
2022-11-20T03:51:35.632Z,2.90
2022-11-20T03:54:06.365Z,3.53
2022-11-20T03:56:36.425Z,3.08
2022-11-20T03:59:04.122Z,3.10
2022-11-20T04:01:34.266Z,3.08
2022-11-20T04:04:01.378Z,3.35
2022-11-20T04:06:31.756Z,2.75
2022-11-20T04:08:59.387Z,3.10
2022-11-20T04:11:29.385Z,4.40
2022-11-20T04:13:59.638Z,4.50
2022-11-20T04:16:29.600Z,4.55
2022-11-20T04:18:58.525Z,4.68
2022-11-20T04:21:25.768Z,5.30
2022-11-20T04:23:53.890Z,4.93
2022-11-20T04:26:21.842Z,4.78
2022-11-20T04:28:48.856Z,4.50
2022-11-20T04:31:19.504Z,4.78
2022-11-20T04:33:46.900Z,4.88
2022-11-20T04:36:17.806Z,4.68
2022-11-20T04:38:44.857Z,4.38
2022-11-20T04:41:17.340Z,4.40
2022-11-20T04:43:51.780Z,4.07
2022-11-20T04:46:19.676Z,4.40
2022-11-20T04:48:47.090Z,4.65
2022-11-20T04:51:14.226Z,4.80
2022-11-20T04:53:41.219Z,5.10
2022-11-20T04:56:11.270Z,5.13
2022-11-20T04:58:38.780Z,5.10
2022-11-20T05:01:06.879Z,5.35
2022-11-20T05:03:36.338Z,4.88
2022-11-20T05:06:07.302Z,5.50
2022-11-20T05:08:34.919Z,4.80
2022-11-20T05:11:13.421Z,5.00
2022-11-20T05:13:40.412Z,4.65
2022-11-20T05:16:16.964Z,4.78
2022-11-20T05:18:44.531Z,5.18
2022-11-20T05:21:12.487Z,4.88
2022-11-20T05:23:40.488Z,4.68
2022-11-20T05:26:13.151Z,4.45
2022-11-20T05:28:40.473Z,4.22
2022-11-20T05:31:10.963Z,4.47
2022-11-20T05:33:41.110Z,4.53
2022-11-20T05:36:08.524Z,4.50
2022-11-20T05:38:35.301Z,4.75
2022-11-20T05:41:13.962Z,4.88
2022-11-20T05:43:42.263Z,4.55
2022-11-20T05:46:11.317Z,4.43
2022-11-20T05:48:39.358Z,4.10
2022-11-20T05:51:08.631Z,3.80
2022-11-20T05:53:36.771Z,3.90
2022-11-20T05:56:09.300Z,4.00
2022-11-20T05:58:36.210Z,3.60
2022-11-20T06:01:23.214Z,3.72
2022-11-20T06:03:52.333Z,4.10
2022-11-20T06:06:20.509Z,4.13
2022-11-20T06:08:48.456Z,3.50
2022-11-20T06:11:16.709Z,4.18
2022-11-20T06:13:43.953Z,4.00
2022-11-20T06:16:12.567Z,3.88
2022-11-20T06:18:40.151Z,3.80
2022-11-20T06:21:16.070Z,3.65
2022-11-20T06:23:43.742Z,4.00
2022-11-20T06:26:13.610Z,4.20
2022-11-20T06:28:40.864Z,4.13
2022-11-20T06:31:09.099Z,4.30
2022-11-20T06:33:36.195Z,4.15
2022-11-20T06:36:10.154Z,4.78
2022-11-20T06:38:38.653Z,4.20
2022-11-20T06:41:06.994Z,4.60
2022-11-20T06:43:33.850Z,4.47
2022-11-20T06:46:00.870Z,4.47
2022-11-20T06:48:28.773Z,4.15
2022-11-20T06:50:56.898Z,3.88
2022-11-20T06:53:24.597Z,4.28
2022-11-20T06:55:52.345Z,3.75
2022-11-20T06:58:19.528Z,3.58
2022-11-20T07:00:47.421Z,3.63
2022-11-20T07:03:14.715Z,3.80
2022-11-20T07:05:41.830Z,3.88
2022-11-20T07:08:09.569Z,3.35
2022-11-20T07:10:36.719Z,3.88
2022-11-20T07:13:04.041Z,3.90
2022-11-20T07:15:31.177Z,4.15
2022-11-20T07:18:01.004Z,3.38
2022-11-20T07:20:27.898Z,3.28
2022-11-20T07:22:56.677Z,2.75
2022-11-20T07:25:24.544Z,3.10
2022-11-20T07:27:52.059Z,2.97
2022-11-20T07:30:19.425Z,2.80
2022-11-20T07:32:52.566Z,2.65
2022-11-20T07:35:19.917Z,2.58
2022-11-20T07:37:46.862Z,2.72
2022-11-20T07:40:14.708Z,2.58
2022-11-20T07:42:52.024Z,2.92
2022-11-20T07:45:20.871Z,2.50
2022-11-20T07:47:48.063Z,2.50
2022-11-20T07:50:15.172Z,2.20
2022-11-20T07:52:42.023Z,2.15
2022-11-20T07:55:09.866Z,2.25
2022-11-20T07:57:36.768Z,1.92
2022-11-20T08:00:06.833Z,1.95
2022-11-20T08:02:33.631Z,2.05
2022-11-20T08:05:00.393Z,1.77
2022-11-20T08:07:27.358Z,2.20
2022-11-20T08:09:54.215Z,2.08
2022-11-20T08:12:40.361Z,2.00
2022-11-20T08:15:12.863Z,1.40
2022-11-20T08:17:40.349Z,1.90
2022-11-20T08:20:08.556Z,2.10
2022-11-20T08:22:35.456Z,2.00
2022-11-20T08:25:02.645Z,1.65
2022-11-20T08:27:29.673Z,1.60
2022-11-20T08:29:56.492Z,1.73
2022-11-20T08:32:23.356Z,1.80
2022-11-20T08:34:50.531Z,1.90
2022-11-20T08:37:17.298Z,1.63
2022-11-20T08:39:44.186Z,1.95
2022-11-20T08:42:12.336Z,1.95
2022-11-20T08:44:39.108Z,2.13
2022-11-20T08:47:05.935Z,1.90
2022-11-20T08:49:32.701Z,1.95
2022-11-20T08:51:59.476Z,2.20
2022-11-20T08:54:26.337Z,2.20
2022-11-20T08:56:53.448Z,2.10
2022-11-20T08:59:43.364Z,2.08
2022-11-20T09:02:07.281Z,1.95
2022-11-20T09:04:34.109Z,1.85
2022-11-20T09:07:01.478Z,1.80
2022-11-20T09:09:28.471Z,1.85
2022-11-20T09:11:56.229Z,1.73
2022-11-20T09:14:25.797Z,1.73
2022-11-20T09:16:52.590Z,1.60
2022-11-20T09:19:36.118Z,1.67
2022-11-20T09:22:03.581Z,1.75
2022-11-20T09:24:30.957Z,1.27
2022-11-20T09:26:57.829Z,1.30
2022-11-20T09:29:24.675Z,1.40
2022-11-20T09:31:51.462Z,1.00
2022-11-20T09:34:18.270Z,1.17
2022-11-20T09:36:46.091Z,1.23
2022-11-20T09:39:12.886Z,1.02
2022-11-20T09:42:08.712Z,1.20
2022-11-20T09:45:09.806Z,1.10
2022-11-20T09:47:42.748Z,1.30
2022-11-20T09:50:32.563Z,1.13
2022-11-20T09:53:41.957Z,1.30
2022-11-20T09:56:15.071Z,1.48
2022-11-20T09:58:49.804Z,1.52
2022-11-20T10:01:22.320Z,1.25
2022-11-20T10:04:20.768Z,1.02
2022-11-20T10:07:30.241Z,1.10
2022-11-20T10:09:54.662Z,1.20
2022-11-20T10:12:32.405Z,1.10
2022-11-20T10:15:36.294Z,1.48
2022-11-20T10:18:32.649Z,1.20
2022-11-20T10:21:21.961Z,1.30
2022-11-20T10:23:54.714Z,1.40
2022-11-20T10:26:21.568Z,1.30
2022-11-20T10:29:09.224Z,1.00
2022-11-20T10:31:47.778Z,1.20
2022-11-20T10:34:32.688Z,1.17
2022-11-20T10:37:13.028Z,1.27
2022-11-20T10:39:43.016Z,1.00
2022-11-20T10:42:22.324Z,1.08
2022-11-20T10:45:06.787Z,1.10
2022-11-20T10:47:34.362Z,0.95
2022-11-20T10:50:10.771Z,1.10
2022-11-20T10:52:43.718Z,1.20
2022-11-20T10:55:49.263Z,1.10
2022-11-20T10:58:38.269Z,1.23
2022-11-20T11:01:19.905Z,1.15
2022-11-20T11:03:47.921Z,1.45
2022-11-20T11:06:33.492Z,1.27
2022-11-20T11:09:05.178Z,1.02
2022-11-20T11:11:34.583Z,1.17
2022-11-20T11:14:15.640Z,1.02
2022-11-20T11:16:52.104Z,1.27
2022-11-20T11:19:19.733Z,1.20
2022-11-20T11:22:00.261Z,0.90
2022-11-20T11:24:44.687Z,0.93
2022-11-20T11:27:18.986Z,1.15
2022-11-20T11:29:47.543Z,1.23
2022-11-20T11:32:18.265Z,1.00
2022-11-20T11:34:45.161Z,1.00
2022-11-20T11:37:18.580Z,1.20
2022-11-20T11:39:49.401Z,1.10
2022-11-20T11:42:22.281Z,0.95
2022-11-20T11:45:08.127Z,1.40
2022-11-20T11:47:45.119Z,1.17
2022-11-20T11:50:29.402Z,1.23
2022-11-20T11:53:16.845Z,1.00
2022-11-20T11:56:08.627Z,1.30
2022-11-20T11:58:51.114Z,1.10
2022-11-20T12:01:35.593Z,1.05
2022-11-20T12:04:40.126Z,0.73
2022-11-20T12:07:44.074Z,1.15
2022-11-20T12:10:02.681Z,1.00
2022-11-20T12:12:41.934Z,1.13
2022-11-20T12:15:14.016Z,1.25
2022-11-20T12:17:40.882Z,1.15
2022-11-20T12:20:15.529Z,0.98
2022-11-20T12:22:48.199Z,1.17
2022-11-20T12:25:21.101Z,1.08
2022-11-20T12:28:05.922Z,1.20
2022-11-20T12:30:37.075Z,1.20
2022-11-20T12:33:21.192Z,1.10
2022-11-20T12:38:39.413Z,1.48
2022-11-20T12:41:06.221Z,1.50
2022-11-20T12:44:16.031Z,1.38
2022-11-20T12:46:49.226Z,1.15
2022-11-20T12:49:22.199Z,1.00
2022-11-20T12:51:56.131Z,0.75
2022-11-20T12:54:44.033Z,1.10
2022-11-20T12:57:25.888Z,0.90
2022-11-20T12:59:58.397Z,1.02
2022-11-20T13:02:34.242Z,1.40
2022-11-20T13:05:40.415Z,1.40
2022-11-20T13:08:20.881Z,1.17
2022-11-20T13:11:07.869Z,1.10
2022-11-20T13:13:46.964Z,1.40
2022-11-20T13:16:39.440Z,1.30
2022-11-20T13:19:10.728Z,1.50
2022-11-20T13:21:47.497Z,1.30
2022-11-20T13:24:20.672Z,1.55
2022-11-20T13:26:48.281Z,1.50
2022-11-20T13:29:19.518Z,1.30
2022-11-20T13:31:49.852Z,1.60
2022-11-20T13:34:28.500Z,1.73
2022-11-20T13:36:58.655Z,1.65
2022-11-20T13:39:33.853Z,2.10
2022-11-20T13:42:24.481Z,1.90
2022-11-20T13:45:03.717Z,1.58
2022-11-20T13:47:30.808Z,1.88
2022-11-20T13:50:00.479Z,1.40
2022-11-20T13:52:52.611Z,1.15
2022-11-20T13:55:52.450Z,1.20
2022-11-20T13:58:38.037Z,1.40
2022-11-20T14:01:36.713Z,1.40
2022-11-20T14:04:14.108Z,1.48
2022-11-20T14:06:46.587Z,1.45
2022-11-20T14:09:25.871Z,1.75
2022-11-20T14:11:53.014Z,1.83
2022-11-20T14:14:23.039Z,1.50
2022-11-20T14:16:51.370Z,1.40
2022-11-20T14:19:21.224Z,1.70
2022-11-20T14:22:15.075Z,1.80
2022-11-20T14:24:41.864Z,1.50
2022-11-20T14:27:22.511Z,1.30
2022-11-20T14:29:51.256Z,1.50
2022-11-20T14:32:27.684Z,1.42
2022-11-20T14:34:55.512Z,1.67
2022-11-20T14:37:27.216Z,1.58
2022-11-20T14:39:56.663Z,1.65
2022-11-20T14:42:28.413Z,1.45
2022-11-20T14:45:00.278Z,1.50
2022-11-20T14:47:33.748Z,1.40
2022-11-20T14:50:04.639Z,1.40
2022-11-20T14:52:35.605Z,1.55
2022-11-20T14:55:02.580Z,1.60
2022-11-20T14:57:37.022Z,1.33
2022-11-20T15:00:12.886Z,1.60
2022-11-20T15:02:47.041Z,1.60
2022-11-20T15:05:15.220Z,1.50
2022-11-20T15:07:47.009Z,1.38
2022-11-20T15:10:26.889Z,1.60
2022-11-20T15:13:09.886Z,1.40
2022-11-20T15:15:42.148Z,1.50
2022-11-20T15:18:17.603Z,1.50
2022-11-20T15:20:45.477Z,1.30
2022-11-20T15:23:19.996Z,1.25
2022-11-20T15:25:48.855Z,1.10
2022-11-20T15:28:34.326Z,1.30
2022-11-20T15:31:03.317Z,1.48
2022-11-20T15:33:31.350Z,1.92
2022-11-20T15:35:58.499Z,1.75
2022-11-20T15:38:25.581Z,2.05
2022-11-20T15:40:52.433Z,2.00
2022-11-20T15:43:20.142Z,2.08
2022-11-20T15:45:51.761Z,1.63
2022-11-20T15:48:23.268Z,2.10
2022-11-20T15:50:59.341Z,2.20
2022-11-20T15:53:26.209Z,2.40
2022-11-20T15:55:53.073Z,2.60
2022-11-20T15:58:20.163Z,2.58
2022-11-20T16:00:47.050Z,2.65
2022-11-20T16:03:15.318Z,2.70
2022-11-20T16:05:42.655Z,2.85
2022-11-20T16:08:11.804Z,3.40
2022-11-20T16:10:40.732Z,3.08
2022-11-20T16:13:37.823Z,3.13
2022-11-20T16:16:09.062Z,3.10
2022-11-20T16:18:36.233Z,3.13
2022-11-20T16:21:03.814Z,3.20
2022-11-20T16:23:30.633Z,3.05
2022-11-20T16:25:58.456Z,2.80
2022-11-20T16:28:26.316Z,3.13
2022-11-20T16:30:53.108Z,2.65
2022-11-20T16:33:19.936Z,2.92
2022-11-20T16:35:46.794Z,2.72
2022-11-20T16:38:13.882Z,2.75
2022-11-20T16:40:41.504Z,2.63
2022-11-20T16:43:11.184Z,2.40
2022-11-20T16:45:45.196Z,2.47
2022-11-20T16:48:16.887Z,2.83
2022-11-20T16:50:53.703Z,2.78
2022-11-20T16:53:22.231Z,3.03
2022-11-20T16:55:49.445Z,2.80
2022-11-20T16:58:16.487Z,2.67
2022-11-20T17:00:48.341Z,2.70
2022-11-20T17:03:18.663Z,2.83
2022-11-20T17:05:45.526Z,2.90
2022-11-20T17:08:12.486Z,2.83
2022-11-20T17:10:39.277Z,2.78
2022-11-20T17:13:06.203Z,2.35
2022-11-20T17:15:32.990Z,2.53
2022-11-20T17:18:00.051Z,2.40
2022-11-20T17:20:26.902Z,3.40
2022-11-20T17:22:53.954Z,2.42
2022-11-20T17:25:20.788Z,2.65
2022-11-20T17:27:47.659Z,2.70
2022-11-20T17:30:14.822Z,2.53
2022-11-20T17:32:45.743Z,2.70
2022-11-20T17:35:12.667Z,2.60
2022-11-20T17:37:39.495Z,2.58
2022-11-20T17:40:06.801Z,2.13
2022-11-20T17:42:37.126Z,2.67
2022-11-20T17:45:04.862Z,2.42
2022-11-20T17:47:32.573Z,2.65
2022-11-20T17:49:59.369Z,2.53
2022-11-20T17:52:26.790Z,2.35
2022-11-20T17:54:56.471Z,2.17
2022-11-20T17:57:45.113Z,2.30
2022-11-20T18:00:13.287Z,2.40
2022-11-20T18:02:40.776Z,2.08
2022-11-20T18:05:08.874Z,2.10
2022-11-20T18:07:41.466Z,2.30
2022-11-20T18:10:09.768Z,2.05
2022-11-20T18:12:37.943Z,2.00
2022-11-20T18:15:05.007Z,2.28
2022-11-20T18:17:32.028Z,2.50
2022-11-20T18:20:28.535Z,2.35
2022-11-20T18:22:46.190Z,2.70
2022-11-20T18:25:12.974Z,2.63
2022-11-20T18:27:39.825Z,2.95
2022-11-20T18:30:07.255Z,2.28
2022-11-20T18:32:36.055Z,2.60
2022-11-20T18:35:03.374Z,2.80
2022-11-20T18:37:32.885Z,3.15
2022-11-20T18:40:00.653Z,3.85
2022-11-20T18:42:46.180Z,4.20
2022-11-20T18:45:13.005Z,5.72
2022-11-20T18:47:40.269Z,5.80
2022-11-20T18:50:08.671Z,5.10
2022-11-20T18:52:40.909Z,4.70
2022-11-20T18:55:08.759Z,6.07
2022-11-20T18:57:36.144Z,6.65
2022-11-20T19:00:08.871Z,6.85
2022-11-20T19:02:41.696Z,6.07
2022-11-20T19:05:14.448Z,5.65
2022-11-20T19:07:41.901Z,5.60
2022-11-20T19:10:09.142Z,6.55
2022-11-20T19:12:36.013Z,5.35
2022-11-20T19:15:03.232Z,5.63
2022-11-20T19:17:30.048Z,5.47
2022-11-20T19:19:56.934Z,5.05
2022-11-20T19:22:24.462Z,5.45
2022-11-20T19:24:51.726Z,5.90
2022-11-20T19:27:19.444Z,5.85
2022-11-20T19:29:46.291Z,5.75
2022-11-20T19:32:13.095Z,5.70
2022-11-20T19:34:39.985Z,5.13
2022-11-20T19:37:07.092Z,4.57
2022-11-20T19:39:35.829Z,4.25
2022-11-20T19:42:02.946Z,3.92
2022-11-20T19:44:31.029Z,3.67
2022-11-20T19:46:58.702Z,3.85
2022-11-20T19:49:25.971Z,4.25
2022-11-20T19:51:53.262Z,3.45
2022-11-20T19:54:20.331Z,3.80
2022-11-20T19:56:48.982Z,3.72
2022-11-20T19:59:15.824Z,3.95
2022-11-20T20:01:43.640Z,3.72
2022-11-20T20:04:10.571Z,4.05
2022-11-20T20:06:39.089Z,3.90
2022-11-20T20:09:12.306Z,3.95
2022-11-20T20:11:40.008Z,4.10
2022-11-20T20:14:14.675Z,4.10
2022-11-20T20:16:42.831Z,4.05
2022-11-20T20:19:15.235Z,3.72
2022-11-20T20:21:42.492Z,4.57
2022-11-20T20:24:11.449Z,4.60
2022-11-20T20:26:39.531Z,4.43
2022-11-20T20:29:06.678Z,4.22
2022-11-20T20:31:34.942Z,4.70
2022-11-20T20:34:03.480Z,4.68
2022-11-20T20:36:30.353Z,4.70
2022-11-20T20:39:02.891Z,5.40
2022-11-20T20:41:30.529Z,5.38
2022-11-20T20:44:17.158Z,6.80
2022-11-20T20:46:44.813Z,6.50
2022-11-20T20:49:11.783Z,6.60
2022-11-20T20:51:40.608Z,6.43
2022-11-20T20:54:08.805Z,6.70
2022-11-20T20:56:35.701Z,6.20
2022-11-20T20:59:04.543Z,5.88
2022-11-20T21:01:31.528Z,6.32
2022-11-20T21:03:58.464Z,6.13
2022-11-20T21:06:26.018Z,5.82
2022-11-20T21:08:53.146Z,6.00
2022-11-20T21:11:20.887Z,5.72
2022-11-20T21:13:48.663Z,5.40
2022-11-20T21:16:17.673Z,5.97
2022-11-20T21:18:44.807Z,5.80
2022-11-20T21:21:34.795Z,6.18
2022-11-20T21:24:02.254Z,6.00
2022-11-20T21:26:29.095Z,5.25
2022-11-20T21:28:57.609Z,5.25
2022-11-20T21:31:26.803Z,5.18
2022-11-20T21:33:55.935Z,4.63
2022-11-20T21:36:28.795Z,4.43
2022-11-20T21:38:56.700Z,4.32
2022-11-20T21:41:26.515Z,4.63
2022-11-20T21:44:29.196Z,4.32
2022-11-20T21:46:43.809Z,4.32
2022-11-20T21:49:11.116Z,4.65
2022-11-20T21:51:38.178Z,4.90
2022-11-20T21:54:05.306Z,4.50
2022-11-20T21:56:32.214Z,4.72
2022-11-20T21:58:59.091Z,4.35
2022-11-20T22:01:28.944Z,4.07
2022-11-20T22:03:59.140Z,4.68
2022-11-20T22:06:32.410Z,4.22
2022-11-20T22:08:59.813Z,4.78
2022-11-20T22:11:26.899Z,4.03
2022-11-20T22:14:12.530Z,4.00
2022-11-20T22:16:39.619Z,4.00
2022-11-20T22:19:06.821Z,4.15
2022-11-20T22:21:34.744Z,3.85
2022-11-20T22:24:01.649Z,3.78
2022-11-20T22:26:38.794Z,4.00
2022-11-20T22:29:08.544Z,4.30
2022-11-20T22:31:35.949Z,4.53
2022-11-20T22:34:04.641Z,4.15
2022-11-20T22:36:32.525Z,4.10
2022-11-20T22:39:02.131Z,4.47
2022-11-20T22:41:30.327Z,3.92
2022-11-20T22:44:02.317Z,3.92
2022-11-20T22:46:32.155Z,3.95
2022-11-20T22:49:01.725Z,4.03
2022-11-20T22:51:31.714Z,4.43
2022-11-20T22:53:59.660Z,3.67
2022-11-20T22:56:27.953Z,4.05
2022-11-20T22:58:55.408Z,3.85
2022-11-20T23:01:33.612Z,3.58
2022-11-20T23:04:03.708Z,4.53
2022-11-20T23:06:30.963Z,4.35
2022-11-20T23:08:57.810Z,4.13
2022-11-20T23:11:29.728Z,4.50
2022-11-20T23:14:07.973Z,4.55
2022-11-20T23:16:35.663Z,4.35
2022-11-20T23:19:07.912Z,4.57
2022-11-20T23:21:36.281Z,4.38
2022-11-20T23:24:03.748Z,4.53
2022-11-20T23:26:34.263Z,4.30
2022-11-20T23:29:01.947Z,4.28
2022-11-20T23:31:31.214Z,5.15
2022-11-20T23:33:58.938Z,5.03
2022-11-20T23:36:26.636Z,4.75
2022-11-20T23:38:53.794Z,4.82
2022-11-20T23:41:21.034Z,5.00
2022-11-20T23:43:48.256Z,4.80
2022-11-20T23:46:16.979Z,4.82
2022-11-20T23:48:45.432Z,5.78
2022-11-20T23:51:13.216Z,4.90
2022-11-20T23:53:40.211Z,5.10
2022-11-20T23:56:07.217Z,4.57
2022-11-20T23:58:37.156Z,5.25
